Terminal Aerodrome Forecast
Issued by NWS Cleveland, OH

Home | Current Version | Previous Version | Graphics & Text | Print | Product List | Glossary On
Versions: 1 2 3 4 5 6 7 8 9 10 11 12 13 14 15 16
000
FTUS41 KCLE 171600 AAA
TAFYNG
TAF AMD
KYNG 171608Z 1716/1812 23005KT P6SM BKN040
     FM172200 26005KT P6SM SCT045
     FM180100 VRB03KT P6SM SKC
     FM180900 VRB03KT 4SM BR SKC=

USA.gov is the U.S. government's official web portal to all federal, state and local government web resources and services.